sensor_id;sensor_type;location;lat;lon;timestamp;pressure;altitude;pressure_sealevel;temperature;humidity
43770;BME280;6597;52.218;9.882;2023-05-19T00:02:16;101924.72;;;8.23;92.61
43770;BME280;6597;52.218;9.882;2023-05-19T00:04:46;101927.38;;;8.22;92.78
43770;BME280;6597;52.218;9.882;2023-05-19T00:07:16;101927.38;;;8.22;92.26
43770;BME280;6597;52.218;9.882;2023-05-19T00:09:44;101922.13;;;8.20;92.36
43770;BME280;6597;52.218;9.882;2023-05-19T00:12:12;101930.88;;;8.19;92.41
43770;BME280;6597;52.218;9.882;2023-05-19T00:14:39;101930.88;;;8.19;92.45
43770;BME280;6597;52.218;9.882;2023-05-19T00:17:06;101930.88;;;8.19;92.40
43770;BME280;6597;52.218;9.882;2023-05-19T00:19:33;101934.38;;;8.18;92.20
43770;BME280;6597;52.218;9.882;2023-05-19T00:22:01;101934.38;;;8.18;92.46
43770;BME280;6597;52.218;9.882;2023-05-19T00:24:28;101934.38;;;8.15;92.54
43770;BME280;6597;52.218;9.882;2023-05-19T00:26:54;101929.16;;;8.17;92.69
43770;BME280;6597;52.218;9.882;2023-05-19T00:29:21;101924.81;;;8.14;92.66
43770;BME280;6597;52.218;9.882;2023-05-19T00:31:47;101931.78;;;8.14;92.94
43770;BME280;6597;52.218;9.882;2023-05-19T00:34:14;101925.66;;;8.15;93.59
43770;BME280;6597;52.218;9.882;2023-05-19T00:36:40;101926.53;;;8.17;93.36
43770;BME280;6597;52.218;9.882;2023-05-19T00:39:08;101918.69;;;8.14;93.39
43770;BME280;6597;52.218;9.882;2023-05-19T00:41:35;101917.81;;;8.15;93.80
43770;BME280;6597;52.218;9.882;2023-05-19T00:44:01;101915.22;;;8.13;93.52
43770;BME280;6597;52.218;9.882;2023-05-19T00:46:28;101916.06;;;8.12;94.06
43770;BME280;6597;52.218;9.882;2023-05-19T00:48:55;101916.06;;;8.12;94.21
43770;BME280;6597;52.218;9.882;2023-05-19T00:51:23;101918.69;;;8.10;93.59
43770;BME280;6597;52.218;9.882;2023-05-19T00:53:51;101912.59;;;8.11;93.69
43770;BME280;6597;52.218;9.882;2023-05-19T00:56:19;101916.94;;;8.11;93.76
43770;BME280;6597;52.218;9.882;2023-05-19T00:58:46;101911.72;;;8.09;93.99
43770;BME280;6597;52.218;9.882;2023-05-19T01:01:16;101913.44;;;8.12;93.91
43770;BME280;6597;52.218;9.882;2023-05-19T01:03:46;101907.34;;;8.11;93.85
43770;BME280;6597;52.218;9.882;2023-05-19T01:06:13;101908.22;;;8.12;94.34
43770;BME280;6597;52.218;9.882;2023-05-19T01:08:39;101910.84;;;8.14;93.67
43770;BME280;6597;52.218;9.882;2023-05-19T01:11:06;101906.47;;;8.16;93.61
43770;BME280;6597;52.218;9.882;2023-05-19T01:13:36;101910.84;;;8.17;94.06
43770;BME280;6597;52.218;9.882;2023-05-19T01:16:06;101912.59;;;8.16;94.09
43770;BME280;6597;52.218;9.882;2023-05-19T01:18:50;101903.88;;;8.14;93.66
43770;BME280;6597;52.218;9.882;2023-05-19T01:24:24;101895.19;;;8.07;93.54
43770;BME280;6597;52.218;9.882;2023-05-19T01:27:33;101895.19;;;8.04;93.74
43770;BME280;6597;52.218;9.882;2023-05-19T01:30:16;101903.94;;;8.00;94.05
43770;BME280;6597;52.218;9.882;2023-05-19T01:32:48;101901.34;;;7.97;94.22
43770;BME280;6597;52.218;9.882;2023-05-19T01:35:17;101903.09;;;7.97;94.11
43770;BME280;6597;52.218;9.882;2023-05-19T01:37:44;101907.47;;;7.93;94.06
43770;BME280;6597;52.218;9.882;2023-05-19T01:40:12;101899.66;;;7.90;94.39
43770;BME280;6597;52.218;9.882;2023-05-19T01:42:39;101902.28;;;7.89;94.36
43770;BME280;6597;52.218;9.882;2023-05-19T01:45:07;101902.28;;;7.90;94.00
43770;BME280;6597;52.218;9.882;2023-05-19T01:47:39;101899.69;;;7.87;93.93
43770;BME280;6597;52.218;9.882;2023-05-19T01:50:06;101898.81;;;7.85;93.55
43770;BME280;6597;52.218;9.882;2023-05-19T01:52:33;101913.66;;;7.83;93.47
43770;BME280;6597;52.218;9.882;2023-05-19T01:55:00;101900.56;;;7.78;93.39
43770;BME280;6597;52.218;9.882;2023-05-19T01:57:32;101904.94;;;7.76;93.57
43770;BME280;6597;52.218;9.882;2023-05-19T02:00:07;101905.84;;;7.71;93.17
43770;BME280;6597;52.218;9.882;2023-05-19T02:02:45;101906.72;;;7.68;93.65
43770;BME280;6597;52.218;9.882;2023-05-19T02:05:22;101903.28;;;7.62;93.77
43770;BME280;6597;52.218;9.882;2023-05-19T02:08:00;101907.66;;;7.57;93.56
43770;BME280;6597;52.218;9.882;2023-05-19T02:10:30;101909.44;;;7.53;93.37
43770;BME280;6597;52.218;9.882;2023-05-19T02:13:03;101905.97;;;7.51;93.67
43770;BME280;6597;52.218;9.882;2023-05-19T02:15:35;101901.63;;;7.48;93.68
43770;BME280;6597;52.218;9.882;2023-05-19T02:18:07;101912.06;;;7.45;93.76
43770;BME280;6597;52.218;9.882;2023-05-19T02:20:36;101905.06;;;7.46;93.79
43770;BME280;6597;52.218;9.882;2023-05-19T02:23:02;101905.94;;;7.46;93.94
43770;BME280;6597;52.218;9.882;2023-05-19T02:25:29;101902.50;;;7.49;93.97
43770;BME280;6597;52.218;9.882;2023-05-19T02:27:56;101896.38;;;7.47;93.71
43770;BME280;6597;52.218;9.882;2023-05-19T02:30:23;101898.09;;;7.46;93.81
43770;BME280;6597;52.218;9.882;2023-05-19T02:32:50;101897.25;;;7.44;93.96
43770;BME280;6597;52.218;9.882;2023-05-19T02:35:19;101896.41;;;7.41;93.80
43770;BME280;6597;52.218;9.882;2023-05-19T02:37:46;101903.38;;;7.39;94.20
43770;BME280;6597;52.218;9.882;2023-05-19T02:40:13;101900.78;;;7.36;93.96
43770;BME280;6597;52.218;9.882;2023-05-19T02:42:39;101898.19;;;7.33;94.18
43770;BME280;6597;52.218;9.882;2023-05-19T02:45:07;101891.22;;;7.33;94.16
43770;BME280;6597;52.218;9.882;2023-05-19T02:47:34;101888.59;;;7.32;94.41
43770;BME280;6597;52.218;9.882;2023-05-19T02:50:00;101886.00;;;7.32;94.29
43770;BME280;6597;52.218;9.882;2023-05-19T02:52:30;101890.34;;;7.31;94.44
43770;BME280;6597;52.218;9.882;2023-05-19T02:54:56;101888.59;;;7.33;94.74
43770;BME280;6597;52.218;9.882;2023-05-19T02:57:23;101881.63;;;7.34;94.61
43770;BME280;6597;52.218;9.882;2023-05-19T02:59:51;101877.25;;;7.36;94.56
43770;BME280;6597;52.218;9.882;2023-05-19T03:02:17;101886.81;;;7.40;94.44
43770;BME280;6597;52.218;9.882;2023-05-19T03:04:44;101878.09;;;7.45;94.19
43770;BME280;6597;52.218;9.882;2023-05-19T03:07:10;101875.50;;;7.48;93.96
43770;BME280;6597;52.218;9.882;2023-05-19T03:09:39;101877.22;;;7.51;94.23
43770;BME280;6597;52.218;9.882;2023-05-19T03:12:05;101878.09;;;7.52;93.57
43770;BME280;6597;52.218;9.882;2023-05-19T03:14:33;101874.63;;;7.49;93.41
43770;BME280;6597;52.218;9.882;2023-05-19T03:17:02;101876.34;;;7.44;93.18
43770;BME280;6597;52.218;9.882;2023-05-19T03:19:28;101869.41;;;7.42;93.27
43770;BME280;6597;52.218;9.882;2023-05-19T03:21:56;101879.00;;;7.40;93.20
43770;BME280;6597;52.218;9.882;2023-05-19T03:24:23;101879.88;;;7.36;93.46
43770;BME280;6597;52.218;9.882;2023-05-19T03:26:51;101885.09;;;7.34;93.59
43770;BME280;6597;52.218;9.882;2023-05-19T03:29:17;101879.91;;;7.31;93.72
43770;BME280;6597;52.218;9.882;2023-05-19T03:31:44;101875.56;;;7.29;93.74
43770;BME280;6597;52.218;9.882;2023-05-19T03:34:12;101874.69;;;7.25;94.27
43770;BME280;6597;52.218;9.882;2023-05-19T03:36:39;101883.41;;;7.24;94.19
43770;BME280;6597;52.218;9.882;2023-05-19T03:39:10;101886.91;;;7.23;94.40
43770;BME280;6597;52.218;9.882;2023-05-19T03:41:37;101875.59;;;7.23;94.38
43770;BME280;6597;52.218;9.882;2023-05-19T03:44:05;101881.69;;;7.22;94.66
43770;BME280;6597;52.218;9.882;2023-05-19T03:46:31;101883.41;;;7.23;95.02
43770;BME280;6597;52.218;9.882;2023-05-19T03:49:17;101873.84;;;7.23;95.12
43770;BME280;6597;52.218;9.882;2023-05-19T03:51:56;101885.16;;;7.24;95.36
43770;BME280;6597;52.218;9.882;2023-05-19T03:54:30;101880.78;;;7.26;95.70
43770;BME280;6597;52.218;9.882;2023-05-19T03:56:57;101880.78;;;7.29;96.10
43770;BME280;6597;52.218;9.882;2023-05-19T03:59:25;101871.19;;;7.34;96.39
43770;BME280;6597;52.218;9.882;2023-05-19T04:01:52;101883.34;;;7.39;96.68
43770;BME280;6597;52.218;9.882;2023-05-19T04:04:18;101878.97;;;7.46;96.76
43770;BME280;6597;52.218;9.882;2023-05-19T04:06:45;101881.53;;;7.57;96.32
43770;BME280;6597;52.218;9.882;2023-05-19T04:09:14;101880.66;;;7.61;96.16
43770;BME280;6597;52.218;9.882;2023-05-19T04:11:41;101882.34;;;7.66;96.07
43770;BME280;6597;52.218;9.882;2023-05-19T04:14:08;101885.81;;;7.68;95.85
43770;BME280;6597;52.218;9.882;2023-05-19T04:16:36;101871.84;;;7.74;96.08
43770;BME280;6597;52.218;9.882;2023-05-19T04:19:03;101886.63;;;7.79;95.91
43770;BME280;6597;52.218;9.882;2023-05-19T04:21:29;101887.50;;;7.85;95.74
43770;BME280;6597;52.218;9.882;2023-05-19T04:23:56;101877.88;;;7.88;95.29
43770;BME280;6597;52.218;9.882;2023-05-19T04:26:24;101882.19;;;7.94;95.38
43770;BME280;6597;52.218;9.882;2023-05-19T04:28:51;101890.03;;;7.97;95.52
43770;BME280;6597;52.218;9.882;2023-05-19T04:31:18;101886.50;;;8.01;95.19
43770;BME280;6597;52.218;9.882;2023-05-19T04:33:47;101894.31;;;8.05;95.39
43770;BME280;6597;52.218;9.882;2023-05-19T04:36:13;101893.41;;;8.09;94.60
43770;BME280;6597;52.218;9.882;2023-05-19T04:38:43;101890.81;;;8.14;94.81
43770;BME280;6597;52.218;9.882;2023-05-19T04:41:11;101889.06;;;8.15;94.86
43770;BME280;6597;52.218;9.882;2023-05-19T04:43:39;101895.13;;;8.18;94.89
43770;BME280;6597;52.218;9.882;2023-05-19T04:46:07;101898.63;;;8.17;94.53
43770;BME280;6597;52.218;9.882;2023-05-19T04:48:34;101889.91;;;8.18;93.74
43770;BME280;6597;52.218;9.882;2023-05-19T04:51:02;101898.63;;;8.17;93.01
43770;BME280;6597;52.218;9.882;2023-05-19T04:53:29;101897.72;;;8.21;92.95
43770;BME280;6597;52.218;9.882;2023-05-19T04:55:57;101893.28;;;8.29;92.95
43770;BME280;6597;52.218;9.882;2023-05-19T04:58:25;101896.72;;;8.39;93.16
43770;BME280;6597;52.218;9.882;2023-05-19T05:00:53;101901.03;;;8.45;92.80
43770;BME280;6597;52.218;9.882;2023-05-19T05:03:21;101894.91;;;8.52;92.69
43770;BME280;6597;52.218;9.882;2023-05-19T05:05:49;101890.44;;;8.61;91.84
43770;BME280;6597;52.218;9.882;2023-05-19T05:08:17;101897.34;;;8.68;91.85
43770;BME280;6597;52.218;9.882;2023-05-19T05:10:48;101895.53;;;8.78;92.08
43770;BME280;6597;52.218;9.882;2023-05-19T05:13:15;101900.69;;;8.87;91.89
43770;BME280;6597;52.218;9.882;2023-05-19T05:15:43;101897.97;;;8.95;90.92
43770;BME280;6597;52.218;9.882;2023-05-19T05:18:10;101893.50;;;9.04;91.21
43770;BME280;6597;52.218;9.882;2023-05-19T05:20:37;101888.22;;;9.12;90.41
43770;BME280;6597;52.218;9.882;2023-05-19T05:23:04;101888.19;;;9.14;90.45
43770;BME280;6597;52.218;9.882;2023-05-19T05:25:35;101882.91;;;9.17;89.89
43770;BME280;6597;52.218;9.882;2023-05-19T05:28:02;101881.97;;;9.22;90.14
43770;BME280;6597;52.218;9.882;2023-05-19T05:30:32;101877.53;;;9.29;90.35
43770;BME280;6597;52.218;9.882;2023-05-19T05:32:59;101882.69;;;9.35;89.80
43770;BME280;6597;52.218;9.882;2023-05-19T05:35:30;101874.84;;;9.33;88.61
43770;BME280;6597;52.218;9.882;2023-05-19T05:37:57;101884.44;;;9.34;88.42
43770;BME280;6597;52.218;9.882;2023-05-19T05:40:24;101884.41;;;9.36;88.85
43770;BME280;6597;52.218;9.882;2023-05-19T05:42:53;101882.59;;;9.44;88.99
43770;BME280;6597;52.218;9.882;2023-05-19T05:45:22;101882.56;;;9.46;88.40
43770;BME280;6597;52.218;9.882;2023-05-19T05:47:51;101877.38;;;9.41;88.88
43770;BME280;6597;52.218;9.882;2023-05-19T05:50:18;101881.69;;;9.47;88.57
43770;BME280;6597;52.218;9.882;2023-05-19T05:52:46;101878.13;;;9.51;88.17
43770;BME280;6597;52.218;9.882;2023-05-19T05:55:15;101886.69;;;9.63;88.23
43770;BME280;6597;52.218;9.882;2023-05-19T05:57:42;101882.16;;;9.75;87.84
43770;BME280;6597;52.218;9.882;2023-05-19T06:00:11;101883.75;;;9.88;88.14
43770;BME280;6597;52.218;9.882;2023-05-19T06:02:50;101886.13;;;10.03;88.18
43770;BME280;6597;52.218;9.882;2023-05-19T06:05:18;101886.91;;;10.11;87.18
43770;BME280;6597;52.218;9.882;2023-05-19T06:07:46;101891.25;;;10.14;87.21
43770;BME280;6597;52.218;9.882;2023-05-19T06:10:18;101898.97;;;10.24;87.20
43770;BME280;6597;52.218;9.882;2023-05-19T06:12:45;101897.13;;;10.31;86.96
43770;BME280;6597;52.218;9.882;2023-05-19T06:15:13;101896.88;;;10.46;86.84
43770;BME280;6597;52.218;9.882;2023-05-19T06:17:55;101886.84;;;10.70;85.96
43770;BME280;6597;52.218;9.882;2023-05-19T06:20:22;101891.84;;;10.85;84.47
43770;BME280;6597;52.218;9.882;2023-05-19T06:22:49;101890.47;;;11.12;84.83
43770;BME280;6597;52.218;9.882;2023-05-19T06:25:18;101899.59;;;11.36;83.07
43770;BME280;6597;52.218;9.882;2023-05-19T06:27:45;101892.09;;;11.61;81.15
43770;BME280;6597;52.218;9.882;2023-05-19T06:30:15;101891.00;;;11.71;80.96
43770;BME280;6597;52.218;9.882;2023-05-19T06:33:00;101889.91;;;11.82;79.91
43770;BME280;6597;52.218;9.882;2023-05-19T06:35:28;101893.84;;;12.03;79.75
43770;BME280;6597;52.218;9.882;2023-05-19T06:37:55;101894.56;;;12.10;77.55
43770;BME280;6597;52.218;9.882;2023-05-19T06:40:22;101890.16;;;12.10;78.19
43770;BME280;6597;52.218;9.882;2023-05-19T06:42:48;101881.91;;;12.24;78.11
43770;BME280;6597;52.218;9.882;2023-05-19T06:45:22;101887.53;;;12.46;78.08
43770;BME280;6597;52.218;9.882;2023-05-19T06:47:50;101889.19;;;12.50;75.78
43770;BME280;6597;52.218;9.882;2023-05-19T06:50:16;101893.09;;;12.69;76.11
43770;BME280;6597;52.218;9.882;2023-05-19T06:52:45;101888.75;;;12.99;75.29
43770;BME280;6597;52.218;9.882;2023-05-19T06:55:11;101888.81;;;13.30;74.84
43770;BME280;6597;52.218;9.882;2023-05-19T06:57:38;101888.13;;;13.55;73.84
43770;BME280;6597;52.218;9.882;2023-05-19T07:00:06;101878.56;;;13.80;72.87
43770;BME280;6597;52.218;9.882;2023-05-19T07:02:35;101881.28;;;13.77;68.30
43770;BME280;6597;52.218;9.882;2023-05-19T07:05:02;101884.84;;;13.76;69.26
43770;BME280;6597;52.218;9.882;2023-05-19T07:07:29;101881.91;;;13.85;68.37
43770;BME280;6597;52.218;9.882;2023-05-19T07:09:56;101883.09;;;14.05;69.26
43770;BME280;6597;52.218;9.882;2023-05-19T07:12:24;101876.94;;;14.30;67.58
43770;BME280;6597;52.218;9.882;2023-05-19T07:14:52;101878.56;;;14.36;66.57
43770;BME280;6597;52.218;9.882;2023-05-19T07:17:18;101881.47;;;14.55;66.72
43770;BME280;6597;52.218;9.882;2023-05-19T07:19:46;101878.38;;;14.69;65.69
43770;BME280;6597;52.218;9.882;2023-05-19T07:22:13;101873.56;;;14.80;65.04
43770;BME280;6597;52.218;9.882;2023-05-19T07:24:40;101876.16;;;14.81;64.15
43770;BME280;6597;52.218;9.882;2023-05-19T07:27:06;101875.72;;;14.69;64.64
43770;BME280;6597;52.218;9.882;2023-05-19T07:29:33;101874.13;;;14.63;64.52
43770;BME280;6597;52.218;9.882;2023-05-19T07:32:00;101857.56;;;14.58;65.21
43770;BME280;6597;52.218;9.882;2023-05-19T07:34:26;101859.81;;;14.70;65.60
43770;BME280;6597;52.218;9.882;2023-05-19T07:36:54;101859.72;;;14.98;64.79
43770;BME280;6597;52.218;9.882;2023-05-19T07:39:20;101862.97;;;15.30;62.76
43770;BME280;6597;52.218;9.882;2023-05-19T07:41:49;101869.03;;;15.55;61.84
43770;BME280;6597;52.218;9.882;2023-05-19T07:44:19;101864.69;;;15.77;60.17
43770;BME280;6597;52.218;9.882;2023-05-19T07:46:46;101853.72;;;15.86;60.34
43770;BME280;6597;52.218;9.882;2023-05-19T07:49:13;101854.66;;;16.07;58.37
43770;BME280;6597;52.218;9.882;2023-05-19T07:51:39;101859.22;;;16.04;60.77
43770;BME280;6597;52.218;9.882;2023-05-19T07:54:08;101866.25;;;16.05;60.51
43770;BME280;6597;52.218;9.882;2023-05-19T07:56:34;101861.13;;;15.78;59.09
43770;BME280;6597;52.218;9.882;2023-05-19T07:59:02;101861.50;;;15.69;60.88
43770;BME280;6597;52.218;9.882;2023-05-19T08:01:28;101856.47;;;15.38;59.30
43770;BME280;6597;52.218;9.882;2023-05-19T08:03:55;101864.84;;;15.49;60.93
43770;BME280;6597;52.218;9.882;2023-05-19T08:06:22;101859.09;;;15.63;60.99
43770;BME280;6597;52.218;9.882;2023-05-19T08:08:49;101860.81;;;15.86;59.85
43770;BME280;6597;52.218;9.882;2023-05-19T08:11:17;101861.41;;;15.94;60.01
43770;BME280;6597;52.218;9.882;2023-05-19T08:13:44;101864.34;;;16.08;60.51
43770;BME280;6597;52.218;9.882;2023-05-19T08:16:12;101862.34;;;16.35;60.57
43770;BME280;6597;52.218;9.882;2023-05-19T08:18:39;101851.53;;;16.62;57.32
43770;BME280;6597;52.218;9.882;2023-05-19T08:21:05;101850.66;;;16.61;57.68
43770;BME280;6597;52.218;9.882;2023-05-19T08:23:32;101847.88;;;16.85;58.67
43770;BME280;6597;52.218;9.882;2023-05-19T08:25:59;101850.75;;;17.00;55.55
43770;BME280;6597;52.218;9.882;2023-05-19T08:28:27;101843.44;;;17.05;55.39
43770;BME280;6597;52.218;9.882;2023-05-19T08:30:53;101851.56;;;17.21;54.70
43770;BME280;6597;52.218;9.882;2023-05-19T08:33:20;101839.59;;;17.31;54.22
43770;BME280;6597;52.218;9.882;2023-05-19T08:35:47;101845.28;;;17.42;52.96
43770;BME280;6597;52.218;9.882;2023-05-19T08:38:13;101844.91;;;17.31;53.07
43770;BME280;6597;52.218;9.882;2023-05-19T08:40:40;101843.16;;;17.11;53.25
43770;BME280;6597;52.218;9.882;2023-05-19T08:43:08;101839.34;;;16.98;54.68
43770;BME280;6597;52.218;9.882;2023-05-19T08:45:38;101842.47;;;17.27;54.13
43770;BME280;6597;52.218;9.882;2023-05-19T08:48:06;101826.09;;;17.55;52.67
43770;BME280;6597;52.218;9.882;2023-05-19T08:50:38;101832.28;;;17.55;52.06
43770;BME280;6597;52.218;9.882;2023-05-19T08:53:09;101821.25;;;17.64;50.89
43770;BME280;6597;52.218;9.882;2023-05-19T08:55:41;101824.56;;;17.69;51.34
43770;BME280;6597;52.218;9.882;2023-05-19T08:58:10;101822.66;;;17.53;50.34
43770;BME280;6597;52.218;9.882;2023-05-19T09:00:39;101817.22;;;17.56;52.40
43770;BME280;6597;52.218;9.882;2023-05-19T09:03:06;101821.31;;;17.44;50.79
43770;BME280;6597;52.218;9.882;2023-05-19T09:05:33;101805.72;;;17.55;51.13
43770;BME280;6597;52.218;9.882;2023-05-19T09:08:02;101818.31;;;17.70;52.56
43770;BME280;6597;52.218;9.882;2023-05-19T09:10:29;101816.44;;;18.09;51.64
43770;BME280;6597;52.218;9.882;2023-05-19T09:12:55;101804.66;;;18.49;50.59
43770;BME280;6597;52.218;9.882;2023-05-19T09:15:25;101807.53;;;18.63;50.04
43770;BME280;6597;52.218;9.882;2023-05-19T09:18:04;101810.31;;;18.43;48.74
43770;BME280;6597;52.218;9.882;2023-05-19T09:20:32;101799.28;;;18.33;49.29
43770;BME280;6597;52.218;9.882;2023-05-19T09:23:01;101801.91;;;18.50;49.58
43770;BME280;6597;52.218;9.882;2023-05-19T09:25:28;101803.09;;;18.45;48.94
43770;BME280;6597;52.218;9.882;2023-05-19T09:27:54;101805.00;;;18.25;48.33
43770;BME280;6597;52.218;9.882;2023-05-19T09:30:22;101788.38;;;18.20;50.40
43770;BME280;6597;52.218;9.882;2023-05-19T09:32:50;101797.03;;;18.25;50.92
43770;BME280;6597;52.218;9.882;2023-05-19T09:35:18;101795.28;;;18.59;48.78
43770;BME280;6597;52.218;9.882;2023-05-19T09:37:45;101793.00;;;18.86;48.50
43770;BME280;6597;52.218;9.882;2023-05-19T09:40:13;101790.03;;;18.92;48.34
43770;BME280;6597;52.218;9.882;2023-05-19T09:42:41;101787.56;;;19.05;48.57
43770;BME280;6597;52.218;9.882;2023-05-19T09:45:08;101795.25;;;19.26;46.84
43770;BME280;6597;52.218;9.882;2023-05-19T09:47:36;101788.75;;;19.15;46.69
43770;BME280;6597;52.218;9.882;2023-05-19T09:50:04;101792.19;;;19.17;48.09
43770;BME280;6597;52.218;9.882;2023-05-19T09:52:35;101783.88;;;19.07;47.73
43770;BME280;6597;52.218;9.882;2023-05-19T09:55:04;101792.72;;;19.08;47.69
43770;BME280;6597;52.218;9.882;2023-05-19T09:57:35;101786.78;;;19.03;45.46
43770;BME280;6597;52.218;9.882;2023-05-19T10:00:06;101787.69;;;19.19;46.83
43770;BME280;6597;52.218;9.882;2023-05-19T10:02:43;101780.94;;;19.12;46.24
43770;BME280;6597;52.218;9.882;2023-05-19T10:05:12;101773.91;;;19.11;46.57
43770;BME280;6597;52.218;9.882;2023-05-19T10:07:42;101780.66;;;19.34;47.48
43770;BME280;6597;52.218;9.882;2023-05-19T10:10:14;101772.25;;;19.73;45.46
43770;BME280;6597;52.218;9.882;2023-05-19T10:12:41;101760.94;;;19.99;44.77
43770;BME280;6597;52.218;9.882;2023-05-19T10:15:09;101761.44;;;20.06;44.05
43770;BME280;6597;52.218;9.882;2023-05-19T10:17:37;101762.94;;;19.96;45.42
43770;BME280;6597;52.218;9.882;2023-05-19T10:20:07;101760.66;;;19.58;44.52
43770;BME280;6597;52.218;9.882;2023-05-19T10:22:34;101754.59;;;19.07;47.25
43770;BME280;6597;52.218;9.882;2023-05-19T10:25:02;101755.13;;;18.81;46.26
43770;BME280;6597;52.218;9.882;2023-05-19T10:27:30;101740.97;;;18.80;44.62
43770;BME280;6597;52.218;9.882;2023-05-19T10:30:00;101744.81;;;19.08;43.81
43770;BME280;6597;52.218;9.882;2023-05-19T10:32:30;101745.16;;;19.17;45.04
43770;BME280;6597;52.218;9.882;2023-05-19T10:37:56;101736.50;;;18.65;45.22
43770;BME280;6597;52.218;9.882;2023-05-19T10:40:28;101733.06;;;18.63;45.89
43770;BME280;6597;52.218;9.882;2023-05-19T10:43:12;101744.13;;;19.36;44.89
43770;BME280;6597;52.218;9.882;2023-05-19T10:45:46;101725.97;;;19.89;44.27
43770;BME280;6597;52.218;9.882;2023-05-19T10:48:14;101719.94;;;20.16;43.33
43770;BME280;6597;52.218;9.882;2023-05-19T10:50:42;101727.78;;;19.89;42.86
43770;BME280;6597;52.218;9.882;2023-05-19T10:53:13;101729.53;;;19.74;43.27
43770;BME280;6597;52.218;9.882;2023-05-19T10:55:50;101732.84;;;19.94;44.83
43770;BME280;6597;52.218;9.882;2023-05-19T10:58:38;101726.16;;;20.16;43.42
43770;BME280;6597;52.218;9.882;2023-05-19T11:01:06;101720.88;;;20.45;40.52
43770;BME280;6597;52.218;9.882;2023-05-19T11:03:47;101726.44;;;20.56;39.60
43770;BME280;6597;52.218;9.882;2023-05-19T11:06:18;101726.03;;;20.76;40.98
43770;BME280;6597;52.218;9.882;2023-05-19T11:08:45;101723.00;;;20.97;39.68
43770;BME280;6597;52.218;9.882;2023-05-19T11:11:15;101718.97;;;21.32;39.58
43770;BME280;6597;52.218;9.882;2023-05-19T11:13:46;101712.13;;;21.55;40.09
43770;BME280;6597;52.218;9.882;2023-05-19T11:16:13;101716.31;;;21.59;42.05
43770;BME280;6597;52.218;9.882;2023-05-19T11:18:40;101717.00;;;20.93;39.09
43770;BME280;6597;52.218;9.882;2023-05-19T11:21:06;101707.13;;;20.37;40.93
43770;BME280;6597;52.218;9.882;2023-05-19T11:23:36;101714.88;;;20.11;39.90
43770;BME280;6597;52.218;9.882;2023-05-19T11:26:05;101716.50;;;20.14;42.41
43770;BME280;6597;52.218;9.882;2023-05-19T11:28:34;101707.56;;;20.15;39.54
43770;BME280;6597;52.218;9.882;2023-05-19T11:31:01;101709.59;;;20.26;40.22
43770;BME280;6597;52.218;9.882;2023-05-19T11:33:28;101705.66;;;20.47;38.36
43770;BME280;6597;52.218;9.882;2023-05-19T11:35:57;101703.75;;;20.77;37.95
43770;BME280;6597;52.218;9.882;2023-05-19T11:38:24;101707.16;;;20.79;38.58
43770;BME280;6597;52.218;9.882;2023-05-19T11:40:52;101699.84;;;20.69;38.62
43770;BME280;6597;52.218;9.882;2023-05-19T11:43:21;101705.47;;;20.78;37.24
43770;BME280;6597;52.218;9.882;2023-05-19T11:45:49;101698.31;;;20.93;36.99
43770;BME280;6597;52.218;9.882;2023-05-19T11:48:19;101696.38;;;21.09;38.42
43770;BME280;6597;52.218;9.882;2023-05-19T11:50:46;101696.31;;;20.97;38.62
43770;BME280;6597;52.218;9.882;2023-05-19T11:53:14;101696.41;;;20.81;41.81
43770;BME280;6597;52.218;9.882;2023-05-19T11:55:41;101696.09;;;20.29;39.59
43770;BME280;6597;52.218;9.882;2023-05-19T11:58:08;101693.66;;;19.80;39.53
43770;BME280;6597;52.218;9.882;2023-05-19T12:00:37;101698.78;;;19.69;41.02
43770;BME280;6597;52.218;9.882;2023-05-19T12:03:06;101695.53;;;19.94;40.23
43770;BME280;6597;52.218;9.882;2023-05-19T12:05:36;101688.22;;;19.97;39.45
43770;BME280;6597;52.218;9.882;2023-05-19T12:08:03;101686.13;;;20.02;38.09
43770;BME280;6597;52.218;9.882;2023-05-19T12:10:30;101683.66;;;19.99;38.73
43770;BME280;6597;52.218;9.882;2023-05-19T12:13:00;101686.00;;;19.89;38.85
43770;BME280;6597;52.218;9.882;2023-05-19T12:15:27;101677.03;;;20.35;37.23
43770;BME280;6597;52.218;9.882;2023-05-19T12:17:56;101680.34;;;21.09;38.33
43770;BME280;6597;52.218;9.882;2023-05-19T12:20:24;101676.94;;;21.49;37.10
43770;BME280;6597;52.218;9.882;2023-05-19T12:22:53;101680.41;;;21.36;37.64
43770;BME280;6597;52.218;9.882;2023-05-19T12:25:20;101678.91;;;21.59;36.56
43770;BME280;6597;52.218;9.882;2023-05-19T12:27:47;101669.47;;;21.93;37.80
43770;BME280;6597;52.218;9.882;2023-05-19T12:30:15;101667.28;;;22.13;37.55
43770;BME280;6597;52.218;9.882;2023-05-19T12:32:42;101668.97;;;22.52;36.32
43770;BME280;6597;52.218;9.882;2023-05-19T12:35:09;101669.38;;;22.71;35.55
43770;BME280;6597;52.218;9.882;2023-05-19T12:37:40;101667.69;;;22.83;34.84
43770;BME280;6597;52.218;9.882;2023-05-19T12:40:08;101666.78;;;22.95;35.77
43770;BME280;6597;52.218;9.882;2023-05-19T12:42:34;101671.69;;;23.01;33.80
43770;BME280;6597;52.218;9.882;2023-05-19T12:45:03;101662.09;;;22.86;34.62
43770;BME280;6597;52.218;9.882;2023-05-19T12:47:31;101667.03;;;22.79;35.97
43770;BME280;6597;52.218;9.882;2023-05-19T12:50:03;101655.94;;;23.09;34.29
43770;BME280;6597;52.218;9.882;2023-05-19T12:52:31;101657.41;;;22.64;33.20
43770;BME280;6597;52.218;9.882;2023-05-19T12:55:02;101645.81;;;22.00;35.11
43770;BME280;6597;52.218;9.882;2023-05-19T12:57:29;101664.28;;;22.17;36.23
43770;BME280;6597;52.218;9.882;2023-05-19T13:00:04;101657.53;;;22.37;36.05
43770;BME280;6597;52.218;9.882;2023-05-19T13:02:33;101661.06;;;22.50;35.54
43770;BME280;6597;52.218;9.882;2023-05-19T13:05:00;101658.91;;;22.43;34.42
43770;BME280;6597;52.218;9.882;2023-05-19T13:07:27;101651.53;;;22.33;36.93
43770;BME280;6597;52.218;9.882;2023-05-19T13:09:53;101654.00;;;22.24;35.91
43770;BME280;6597;52.218;9.882;2023-05-19T13:12:22;101650.34;;;22.38;35.72
43770;BME280;6597;52.218;9.882;2023-05-19T13:14:48;101643.91;;;22.65;34.73
43770;BME280;6597;52.218;9.882;2023-05-19T13:17:15;101650.53;;;22.85;34.11
43770;BME280;6597;52.218;9.882;2023-05-19T13:19:43;101642.56;;;22.96;33.05